Time;durP1;ratioP1;P1;durP2;ratioP2;P2;SDS_P1;SDS_P2;PMS_P1;PMS_P2;Temp;Humidity;BMP_temperature;BMP_pressure;BME280_temperature;BME280_humidity;BME280_pressure;Samples;Min_cycle;Max_cycle;Signal;HPM_P1;HPM_P2
2022/09/13 00:01:02;;;;;;;1.13;1.07;;;28.60;65.90;;;;;;5044713;27;88018;-51
2022/09/13 00:03:30;;;;;;;1.00;1.00;;;28.70;64.80;;;;;;5056991;27;87927;-51
2022/09/13 00:06:00;;;;;;;1.33;1.00;;;28.60;64.80;;;;;;5047380;27;87044;-51
2022/09/13 00:08:29;;;;;;;2.03;1.10;;;28.70;65.50;;;;;;5043173;27;86968;-51
2022/09/13 00:10:57;;;;;;;1.17;0.83;;;28.60;65.60;;;;;;5046091;27;88789;-51
2022/09/13 00:13:25;;;;;;;1.43;1.10;;;28.60;65.90;;;;;;5024823;27;87946;-51
2022/09/13 00:15:53;;;;;;;2.17;1.20;;;28.60;66.40;;;;;;5041759;27;88009;-51
2022/09/13 00:18:21;;;;;;;1.50;1.07;;;28.60;66.80;;;;;;5057539;27;88927;-51
2022/09/13 00:20:49;;;;;;;2.73;1.27;;;28.60;67.20;;;;;;5047505;27;87833;-51
2022/09/13 00:23:17;;;;;;;2.33;1.20;;;28.60;67.90;;;;;;5046135;27;87680;-51
2022/09/13 00:25:46;;;;;;;1.60;1.20;;;28.60;68.30;;;;;;5060239;27;87015;-52
2022/09/13 00:28:14;;;;;;;2.40;1.57;;;28.60;69.80;;;;;;5060568;27;88969;-51
2022/09/13 00:30:42;;;;;;;1.27;1.17;;;29.10;70.50;;;;;;5044581;27;89553;-51
2022/09/13 00:33:10;;;;;;;1.47;0.93;;;28.60;71.00;;;;;;5044430;27;86990;-51
2022/09/13 00:35:38;;;;;;;2.17;1.10;;;28.60;72.60;;;;;;5057147;27;87050;-51
2022/09/13 00:38:06;;;;;;;2.33;1.20;;;28.60;75.10;;;;;;5042993;27;88988;-51
2022/09/13 00:40:37;;;;;;;0.80;0.80;;;;;;;;;;5041241;27;87516;-51
2022/09/13 00:43:12;;;;;;;1.27;1.13;;;28.50;69.00;;;;;;5048093;27;87096;-51
2022/09/13 00:45:40;;;;;;;1.07;0.97;;;28.60;68.20;;;;;;5062715;27;86247;-51
2022/09/13 00:48:08;;;;;;;2.73;1.30;;;28.60;68.40;;;;;;5059983;27;89228;-51
2022/09/13 00:50:37;;;;;;;0.73;0.73;;;28.60;69.30;;;;;;5062079;27;87444;-51
2022/09/13 00:53:07;;;;;;;1.37;1.10;;;28.60;76.40;;;;;;5045345;27;87975;-51
2022/09/13 00:55:39;;;;;;;1.53;1.20;;;29.00;86.50;;;;;;5048278;27;87056;-51
2022/09/13 00:58:10;;;;;;;1.33;1.13;;;;;;;;;;5051462;27;87091;-51
2022/09/13 01:00:41;;;;;;;1.77;1.20;;;29.20;90.30;;;;;;5052005;27;87608;-51
2022/09/13 01:03:10;;;;;;;1.83;1.40;;;28.50;85.10;;;;;;5028798;27;87146;-51
2022/09/13 01:05:39;;;;;;;1.20;1.10;;;;;;;;;;5053577;27;87048;-51
2022/09/13 01:08:11;;;;;;;0.87;0.83;;;29.20;87.60;;;;;;5057100;27;88903;-51
2022/09/13 01:10:40;;;;;;;1.57;1.23;;;28.50;76.70;;;;;;5049704;27;90953;-50
2022/09/13 01:13:13;;;;;;;0.80;0.80;;;28.50;88.50;;;;;;5052860;27;88187;-51
2022/09/13 01:15:41;;;;;;;1.67;1.10;;;28.50;78.90;;;;;;5048927;27;87040;-51
2022/09/13 01:18:10;;;;;;;1.50;1.10;;;28.50;82.10;;;;;;5043269;27;88447;-51
2022/09/13 01:20:45;;;;;;;1.97;1.13;;;28.50;80.50;;;;;;5052302;27;87327;-51
2022/09/13 01:23:43;;;;;;;1.40;1.30;;;28.50;80.50;;;;;;5061419;27;87145;-50
2022/09/13 01:26:44;;;;;;;3.47;1.20;;;28.50;86.90;;;;;;5045922;27;87608;-51
2022/09/13 01:29:54;;;;;;;1.13;1.03;;;28.50;74.80;;;;;;5043310;27;87867;-51
2022/09/13 01:32:26;;;;;;;1.47;0.83;;;28.50;87.60;;;;;;4996165;28;88883;-51
2022/09/13 01:34:58;;;;;;;0.73;0.70;;;28.50;73.80;;;;;;5033332;27;87247;-51
2022/09/13 01:37:37;;;;;;;1.67;1.10;;;28.40;74.80;;;;;;5041286;27;86241;-51
2022/09/13 01:40:10;;;;;;;0.83;0.83;;;28.40;75.10;;;;;;5042399;27;88003;-51
2022/09/13 01:42:48;;;;;;;1.83;0.97;;;28.40;79.50;;;;;;5044578;27;87274;-51
2022/09/13 01:45:22;;;;;;;1.90;1.07;;;28.40;69.60;;;;;;5043978;27;87827;-51
2022/09/13 01:47:53;;;;;;;1.53;1.20;;;28.40;69.30;;;;;;5042800;27;88205;-51
2022/09/13 01:50:23;;;;;;;2.77;1.63;;;28.40;73.00;;;;;;5036740;28;87656;-51
2022/09/13 01:52:53;;;;;;;1.50;1.40;;;28.40;73.50;;;;;;5042788;27;88802;-51
2022/09/13 01:55:27;;;;;;;3.10;1.53;;;28.40;67.10;;;;;;5046667;27;87088;-53
2022/09/13 01:57:57;;;;;;;1.47;1.20;;;28.40;68.90;;;;;;5053689;27;87385;-51
2022/09/13 02:00:25;;;;;;;1.77;0.90;;;28.40;77.90;;;;;;5051814;27;89036;-51
2022/09/13 02:02:56;;;;;;;1.77;1.43;;;28.40;69.40;;;;;;5043415;27;88975;-51
2022/09/13 02:05:27;;;;;;;3.07;1.77;;;28.40;70.70;;;;;;5041691;27;87052;-51
2022/09/13 02:07:57;;;;;;;2.03;1.40;;;28.40;75.00;;;;;;5045863;27;87145;-51
2022/09/13 02:10:27;;;;;;;1.60;1.50;;;28.40;75.60;;;;;;5043120;27;88638;-51
2022/09/13 02:12:56;;;;;;;3.30;1.83;;;28.30;80.20;;;;;;5042302;27;88714;-51
2022/09/13 02:15:25;;;;;;;2.17;1.77;;;28.30;74.10;;;;;;5042209;27;86939;-51
2022/09/13 02:17:56;;;;;;;2.10;1.40;;;28.40;85.60;;;;;;5052895;27;88680;-51
2022/09/13 02:20:27;;;;;;;3.23;1.93;;;28.30;65.70;;;;;;5059519;27;88983;-51
2022/09/13 02:22:56;;;;;;;3.43;1.87;;;27.90;65.50;;;;;;5045390;27;87595;-51
2022/09/13 02:25:25;;;;;;;3.63;1.60;;;28.30;66.40;;;;;;5059663;27;87123;-51
2022/09/13 02:27:57;;;;;;;4.30;3.03;;;28.40;67.10;;;;;;5049781;27;86545;-52
2022/09/13 02:30:25;;;;;;;5.10;3.23;;;28.30;68.40;;;;;;5056436;27;87183;-51
2022/09/13 02:32:56;;;;;;;3.33;2.50;;;28.30;69.80;;;;;;5061432;27;87625;-51
2022/09/13 02:35:25;;;;;;;4.90;3.10;;;28.40;76.80;;;;;;5054948;27;87925;-51
2022/09/13 02:37:57;;;;;;;4.63;3.10;;;28.40;68.50;;;;;;5050438;27;87074;-51
2022/09/13 02:40:27;;;;;;;9.70;3.43;;;28.30;68.60;;;;;;5061346;27;88811;-51
2022/09/13 02:42:56;;;;;;;7.50;4.27;;;28.30;72.10;;;;;;5033645;27;88558;-51
2022/09/13 02:45:26;;;;;;;5.33;3.70;;;28.40;82.30;;;;;;5062867;27;86936;-51
2022/09/13 02:47:57;;;;;;;4.90;3.57;;;28.40;71.70;;;;;;5056430;27;88473;-51
2022/09/13 02:50:37;;;;;;;5.93;3.97;;;28.30;72.60;;;;;;5042719;27;88103;-51
2022/09/13 02:53:09;;;;;;;5.37;3.23;;;28.30;74.40;;;;;;5042941;27;87506;-51
2022/09/13 02:55:41;;;;;;;5.80;3.47;;;28.30;75.40;;;;;;5052897;27;87097;-51
2022/09/13 02:58:11;;;;;;;7.50;4.57;;;28.30;70.00;;;;;;5049327;27;86872;-51
2022/09/13 03:00:39;;;;;;;5.03;4.00;;;28.30;69.70;;;;;;5049525;27;88910;-51
2022/09/13 03:03:10;;;;;;;7.07;4.07;;;28.30;70.70;;;;;;5052303;27;87253;-51
2022/09/13 03:05:37;;;;;;;7.07;3.83;;;28.30;83.00;;;;;;5042158;27;88857;-51
2022/09/13 03:08:05;;;;;;;5.87;3.87;;;28.30;70.20;;;;;;5047636;27;87235;-51
2022/09/13 03:10:38;;;;;;;9.80;4.20;;;28.30;68.10;;;;;;5051879;27;89166;-51
2022/09/13 03:13:16;;;;;;;4.90;3.80;;;28.30;68.30;;;;;;5050951;27;89156;-51
2022/09/13 03:15:50;;;;;;;6.00;4.10;;;28.30;69.90;;;;;;5043518;27;86976;-51
2022/09/13 03:18:29;;;;;;;7.43;4.23;;;28.30;74.70;;;;;;5044327;27;86335;-51
2022/09/13 03:21:00;;;;;;;9.57;4.57;;;28.30;71.00;;;;;;5062485;27;88918;-51
2022/09/13 03:23:39;;;;;;;5.60;4.03;;;28.30;72.10;;;;;;5026760;27;88700;-51
2022/09/13 03:26:17;;;;;;;8.07;4.27;;;28.30;73.60;;;;;;5030748;27;87741;-51
2022/09/13 03:28:50;;;;;;;5.07;3.97;;;28.20;74.20;;;;;;5060524;27;87063;-51
2022/09/13 03:31:21;;;;;;;5.83;3.70;;;28.30;70.90;;;;;;5043847;27;89007;-51
2022/09/13 03:33:53;;;;;;;5.80;3.97;;;28.30;71.50;;;;;;5058735;27;88983;-51
2022/09/13 03:36:24;;;;;;;6.60;4.60;;;28.30;74.00;;;;;;5054392;27;87067;-51
2022/09/13 03:38:55;;;;;;;7.30;3.67;;;28.20;73.50;;;;;;5055564;27;87166;-51
2022/09/13 03:41:25;;;;;;;7.27;4.37;;;28.20;75.70;;;;;;5059009;27;88791;-51
2022/09/13 03:43:54;;;;;;;5.53;4.40;;;28.30;75.30;;;;;;5042917;27;88888;-51
2022/09/13 03:46:26;;;;;;;8.63;4.30;;;28.20;73.70;;;;;;5048108;27;87054;-51
2022/09/13 03:48:55;;;;;;;4.97;4.00;;;28.20;71.60;;;;;;5056441;27;87102;-51
2022/09/13 03:51:23;;;;;;;6.37;4.47;;;28.30;75.10;;;;;;5041236;28;87915;-51
2022/09/13 03:53:56;;;;;;;6.87;4.90;;;28.30;73.10;;;;;;5042858;27;89599;-51
2022/09/13 03:56:24;;;;;;;10.23;5.03;;;28.20;74.00;;;;;;5055304;27;88845;-51
2022/09/13 03:58:52;;;;;;;6.30;3.77;;;28.30;69.80;;;;;;5042303;27;86980;-51
2022/09/13 04:01:21;;;;;;;5.53;3.97;;;28.20;69.60;;;;;;5041098;27;87772;-51
2022/09/13 04:03:49;;;;;;;8.23;4.47;;;28.20;70.30;;;;;;5044115;27;87701;-51
2022/09/13 04:06:24;;;;;;;7.30;4.63;;;28.20;81.10;;;;;;5027596;28;87168;-51
2022/09/13 04:08:52;;;;;;;8.43;5.17;;;28.10;75.10;;;;;;5052565;27;86306;-51
2022/09/13 04:11:21;;;;;;;6.37;4.90;;;28.20;69.30;;;;;;5051938;27;88646;-51
2022/09/13 04:13:49;;;;;;;7.23;3.70;;;28.20;66.90;;;;;;5045610;27;87570;-51
2022/09/13 04:16:17;;;;;;;6.97;4.47;;;28.20;66.40;;;;;;5056147;27;87914;-51
2022/09/13 04:18:45;;;;;;;8.37;4.63;;;28.20;66.60;;;;;;5043326;27;88262;-54
2022/09/13 04:21:13;;;;;;;7.27;4.40;;;28.20;67.70;;;;;;5060169;27;89134;-53
2022/09/13 04:23:42;;;;;;;9.43;4.40;;;28.20;69.10;;;;;;5061301;27;88916;-51
2022/09/13 04:26:10;;;;;;;5.03;3.93;;;28.20;70.90;;;;;;5060788;27;86981;-52
2022/09/13 04:28:38;;;;;;;5.50;3.30;;;28.20;79.50;;;;;;5050219;27;86970;-50
2022/09/13 04:31:06;;;;;;;6.50;3.70;;;28.20;73.00;;;;;;5041374;28;89093;-50
2022/09/13 04:33:35;;;;;;;6.73;4.33;;;28.20;75.20;;;;;;5041312;27;87737;-50
2022/09/13 04:36:03;;;;;;;9.57;3.77;;;28.20;74.60;;;;;;5041565;27;87264;-50
2022/09/13 04:38:30;;;;;;;6.77;3.43;;;28.20;73.80;;;;;;5041583;27;86935;-50
2022/09/13 04:41:00;;;;;;;9.17;3.73;;;28.20;74.30;;;;;;5040887;28;90081;-50
2022/09/13 04:43:28;;;;;;;4.77;2.47;;;28.20;78.00;;;;;;5040600;27;89634;-50
2022/09/13 04:45:59;;;;;;;4.93;3.20;;;28.20;73.90;;;;;;5041376;27;86922;-50
2022/09/13 04:48:28;;;;;;;4.33;3.13;;;28.20;75.30;;;;;;5041204;27;87040;-50
2022/09/13 04:51:01;;;;;;;6.77;4.70;;;28.20;74.90;;;;;;5041351;27;89185;-50
2022/09/13 04:53:29;;;;;;;4.73;2.77;;;28.20;73.70;;;;;;5041090;27;87967;-50
2022/09/13 04:56:02;;;;;;;4.37;3.23;;;28.20;76.70;;;;;;5041122;27;86926;-50
2022/09/13 04:58:30;;;;;;;6.27;3.17;;;28.20;73.10;;;;;;5041571;27;86362;-50
2022/09/13 05:01:01;;;;;;;5.03;3.27;;;28.20;73.30;;;;;;5040713;27;88914;-50
2022/09/13 05:03:30;;;;;;;3.83;2.93;;;28.20;81.30;;;;;;5041052;27;87635;-50
2022/09/13 05:06:02;;;;;;;5.63;3.57;;;28.10;77.50;;;;;;5040293;27;89073;-50
2022/09/13 05:08:30;;;;;;;6.53;3.17;;;28.20;80.00;;;;;;5041068;27;86884;-50
2022/09/13 05:10:58;;;;;;;5.20;2.40;;;28.20;79.50;;;;;;5040809;27;88692;-50
2022/09/13 05:13:27;;;;;;;4.30;2.53;;;28.20;78.60;;;;;;5041164;27;88553;-50
2022/09/13 05:15:56;;;;;;;5.83;2.27;;;28.10;72.00;;;;;;5041198;27;87102;-50
2022/09/13 05:18:26;;;;;;;5.47;2.80;;;28.20;87.90;;;;;;5040998;27;87008;-50
2022/09/13 05:20:55;;;;;;;4.73;2.67;;;28.10;70.30;;;;;;5040265;27;89062;-50
2022/09/13 05:23:23;;;;;;;3.03;2.30;;;28.10;75.90;;;;;;5040513;27;87801;-50
2022/09/13 05:25:54;;;;;;;3.43;2.43;;;28.10;72.70;;;;;;5040615;27;87074;-50
2022/09/13 05:28:22;;;;;;;3.03;2.10;;;28.10;89.30;;;;;;5040282;27;87112;-50
2022/09/13 05:30:58;;;;;;;3.57;2.93;;;28.20;71.00;;;;;;5039677;28;89984;-50
2022/09/13 05:33:26;;;;;;;2.70;2.20;;;28.10;69.70;;;;;;5044026;27;90082;-50
2022/09/13 05:35:54;;;;;;;4.00;1.87;;;28.10;71.40;;;;;;5044363;27;87031;-50
2022/09/13 05:38:22;;;;;;;3.77;1.90;;;28.20;80.10;;;;;;5044364;27;87053;-50
2022/09/13 05:40:55;;;;;;;3.57;1.93;;;28.10;67.60;;;;;;5042650;27;89029;-50
2022/09/13 05:43:24;;;;;;;4.77;2.03;;;28.10;66.90;;;;;;5043403;28;88733;-50
2022/09/13 05:46:02;;;;;;;2.20;1.90;;;28.10;66.30;;;;;;5043808;28;87070;-50
2022/09/13 05:48:30;;;;;;;2.20;1.83;;;28.10;66.40;;;;;;5044100;28;86495;-50
2022/09/13 05:51:04;;;;;;;3.17;2.17;;;28.10;66.50;;;;;;5043702;28;89038;-50
2022/09/13 05:53:32;;;;;;;2.13;1.90;;;28.20;66.90;;;;;;5043650;28;88893;-50
2022/09/13 05:56:00;;;;;;;3.27;2.23;;;28.10;67.00;;;;;;5043594;28;87683;-50
2022/09/13 05:58:28;;;;;;;3.27;1.90;;;28.10;67.40;;;;;;5043659;28;87056;-50
2022/09/13 06:00:56;;;;;;;2.37;1.67;;;28.20;67.80;;;;;;5041079;28;87037;-50
2022/09/13 06:03:26;;;;;;;4.23;1.87;;;28.10;68.30;;;;;;5042716;27;88680;-50
2022/09/13 06:05:55;;;;;;;2.23;1.83;;;28.10;68.80;;;;;;5043442;27;87092;-50
2022/09/13 06:08:23;;;;;;;3.30;2.00;;;28.20;69.80;;;;;;5043014;27;86903;-50
2022/09/13 06:10:56;;;;;;;2.50;1.73;;;28.20;70.90;;;;;;5022770;28;88765;-50
2022/09/13 06:13:24;;;;;;;2.13;1.70;;;28.10;73.00;;;;;;5023841;28;88782;-50
2022/09/13 06:15:51;;;;;;;3.83;2.03;;;28.20;74.20;;;;;;5023170;28;86978;-50
2022/09/13 06:18:19;;;;;;;1.63;1.23;;;28.20;69.90;;;;;;5023372;28;87072;-50
2022/09/13 06:20:49;;;;;;;2.17;1.63;;;28.20;70.10;;;;;;5022345;28;89933;-50
2022/09/13 06:23:17;;;;;;;3.13;1.27;;;28.20;71.40;;;;;;5023013;28;89725;-50
2022/09/13 06:25:45;;;;;;;1.40;1.30;;;28.20;73.20;;;;;;5023013;28;87136;-50
2022/09/13 06:28:13;;;;;;;1.77;1.63;;;28.20;83.80;;;;;;5023008;28;86904;-50
2022/09/13 06:30:41;;;;;;;3.23;1.47;;;28.20;68.50;;;;;;5025457;28;89098;-50
2022/09/13 06:33:09;;;;;;;1.30;1.17;;;28.20;68.00;;;;;;5042940;27;88676;-50
2022/09/13 06:35:37;;;;;;;1.63;1.10;;;28.20;68.50;;;;;;5035351;27;87048;-50
2022/09/13 06:38:06;;;;;;;2.90;1.47;;;28.20;68.60;;;;;;5023386;28;86135;-49
2022/09/13 06:40:34;;;;;;;2.03;1.53;;;28.20;69.30;;;;;;5023041;28;89203;-49
2022/09/13 06:43:02;;;;;;;1.37;1.07;;;28.20;70.00;;;;;;5038027;27;88887;-50
2022/09/13 06:45:30;;;;;;;1.67;1.07;;;28.10;70.90;;;;;;5037526;28;88027;-52
2022/09/13 06:47:58;;;;;;;4.37;1.60;;;28.20;72.70;;;;;;5027364;27;87114;-50
2022/09/13 06:50:26;;;;;;;1.73;1.30;;;28.10;77.50;;;;;;5022541;28;89057;-50
2022/09/13 06:52:56;;;;;;;1.80;1.17;;;28.10;73.10;;;;;;5022295;28;88569;-51
2022/09/13 06:55:25;;;;;;;1.13;0.97;;;28.10;73.00;;;;;;5022996;28;87212;-50
2022/09/13 06:57:53;;;;;;;1.73;1.20;;;28.20;73.30;;;;;;5022526;28;87016;-50
2022/09/13 07:00:21;;;;;;;1.87;1.20;;;28.20;74.80;;;;;;5022948;28;89279;-50
2022/09/13 07:02:51;;;;;;;1.00;0.80;;;28.20;81.40;;;;;;5040360;28;88783;-50
2022/09/13 07:05:19;;;;;;;1.70;1.07;;;28.20;81.00;;;;;;5041705;27;87077;-50
2022/09/13 07:07:47;;;;;;;1.33;0.97;;;28.20;79.00;;;;;;5039782;27;86901;-50
2022/09/13 07:10:15;;;;;;;1.70;1.07;;;28.20;80.90;;;;;;5034577;28;88713;-50
2022/09/13 07:12:44;;;;;;;1.73;1.13;;;28.20;82.60;;;;;;5042149;28;89766;-50
2022/09/13 07:15:12;;;;;;;0.70;0.70;;;28.20;75.70;;;;;;5022834;27;86919;-50
2022/09/13 07:17:40;;;;;;;1.40;1.30;;;28.20;83.40;;;;;;5022058;28;87129;-50
2022/09/13 07:20:09;;;;;;;1.90;0.90;;;28.20;72.50;;;;;;5021164;28;87664;-50
2022/09/13 07:22:37;;;;;;;1.53;0.87;;;28.20;72.70;;;;;;5021150;28;88553;-50
2022/09/13 07:25:06;;;;;;;0.87;0.87;;;28.20;74.20;;;;;;5022382;28;87084;-50
2022/09/13 07:27:34;;;;;;;1.50;1.10;;;28.20;74.40;;;;;;5022387;28;86168;-50
2022/09/13 07:30:04;;;;;;;0.70;0.70;;;28.20;76.60;;;;;;5022140;28;88925;-50
2022/09/13 07:32:32;;;;;;;1.27;0.80;;;28.20;76.80;;;;;;5036576;28;88839;-50
2022/09/13 07:35:01;;;;;;;0.50;0.50;;;28.20;77.90;;;;;;5041501;27;88033;-50
2022/09/13 07:37:29;;;;;;;1.73;0.70;;;28.20;83.90;;;;;;5041797;27;87040;-50
2022/09/13 07:39:57;;;;;;;1.80;0.70;;;28.20;79.30;;;;;;5042018;27;88968;-50
2022/09/13 07:42:25;;;;;;;1.20;1.10;;;28.20;75.30;;;;;;5042143;27;87936;-50
2022/09/13 07:44:53;;;;;;;0.50;0.40;;;28.20;80.40;;;;;;5041874;27;86680;-50
2022/09/13 07:47:22;;;;;;;2.67;1.20;;;28.20;74.20;;;;;;5042114;28;86909;-50
2022/09/13 07:49:50;;;;;;;1.50;0.90;;;28.20;76.00;;;;;;5042206;28;89100;-50
2022/09/13 07:52:18;;;;;;;2.20;1.00;;;28.30;81.30;;;;;;5042416;27;88762;-50
2022/09/13 07:54:47;;;;;;;1.00;0.90;;;28.20;71.50;;;;;;5041893;27;87025;-50
2022/09/13 07:57:15;;;;;;;2.10;1.10;;;28.20;73.20;;;;;;5041753;27;87064;-50
2022/09/13 07:59:43;;;;;;;3.00;1.67;;;28.20;76.80;;;;;;5041023;27;88933;-50
2022/09/13 08:02:11;;;;;;;3.47;1.60;;;28.20;71.40;;;;;;5041523;27;89556;-50
2022/09/13 08:04:40;;;;;;;1.63;1.53;;;28.20;72.80;;;;;;5041790;27;87035;-50
2022/09/13 08:07:08;;;;;;;1.97;1.40;;;28.20;85.90;;;;;;5042006;28;87078;-50
2022/09/13 08:09:36;;;;;;;2.70;1.67;;;28.10;71.30;;;;;;5041785;27;88167;-50
2022/09/13 08:12:05;;;;;;;1.80;1.40;;;28.10;70.20;;;;;;5041646;27;88601;-50
2022/09/13 08:14:33;;;;;;;2.27;1.50;;;28.10;70.10;;;;;;5041634;27;87013;-50
2022/09/13 08:17:01;;;;;;;3.37;1.77;;;28.10;70.40;;;;;;5042402;28;86237;-50
2022/09/13 08:19:29;;;;;;;6.10;2.33;;;28.10;71.70;;;;;;5041694;27;88917;-50
2022/09/13 08:21:58;;;;;;;3.57;1.90;;;28.20;71.90;;;;;;5041661;28;88873;-50
2022/09/13 08:24:27;;;;;;;3.60;2.37;;;28.20;72.70;;;;;;5039181;27;88101;-51
2022/09/13 08:26:55;;;;;;;2.93;1.80;;;28.10;74.10;;;;;;5020971;28;87153;-51
2022/09/13 08:29:24;;;;;;;2.03;1.40;;;28.20;81.70;;;;;;5035987;28;89127;-50
2022/09/13 08:31:52;;;;;;;3.00;2.40;;;28.20;72.70;;;;;;5040733;27;88877;-50
2022/09/13 08:34:20;;;;;;;2.63;1.60;;;28.20;73.00;;;;;;5036428;28;89322;-50
2022/09/13 08:36:48;;;;;;;5.20;2.20;;;28.20;74.80;;;;;;5021043;28;87017;-50
2022/09/13 08:39:17;;;;;;;3.10;2.00;;;28.20;81.60;;;;;;5031786;28;88882;-50
2022/09/13 08:42:04;;;;;;;3.07;1.90;;;28.20;71.10;;;;;;5041831;27;88503;-50
2022/09/13 08:44:34;;;;;;;1.90;1.70;;;28.20;70.80;;;;;;5040965;28;86988;-50
2022/09/13 08:47:17;;;;;;;2.20;1.43;;;28.20;70.90;;;;;;5041341;28;87009;-51
2022/09/13 08:49:46;;;;;;;3.07;1.93;;;28.20;71.40;;;;;;5034723;28;90027;-50
2022/09/13 08:52:20;;;;;;;2.00;1.67;;;28.20;71.60;;;;;;5040674;28;89885;-50
2022/09/13 08:54:50;;;;;;;3.07;1.40;;;28.20;72.40;;;;;;5041462;28;87027;-51
2022/09/13 08:57:26;;;;;;;4.20;2.07;;;28.20;73.00;;;;;;5041268;28;87142;-50
2022/09/13 08:59:57;;;;;;;1.50;1.30;;;28.20;73.60;;;;;;5040704;28;89065;-51
2022/09/13 09:02:47;;;;;;;3.53;1.97;;;28.20;76.10;;;;;;5040371;28;88933;-50
2022/09/13 09:05:16;;;;;;;2.30;1.43;;;28.20;77.00;;;;;;5056362;27;87057;-50
2022/09/13 09:07:45;;;;;;;2.50;1.70;;;28.30;77.40;;;;;;5061066;27;86114;-50
2022/09/13 09:10:17;;;;;;;1.97;1.50;;;28.20;74.00;;;;;;5035952;28;88967;-50
2022/09/13 09:12:46;;;;;;;2.17;1.97;;;28.20;73.90;;;;;;5031089;28;87881;-50
2022/09/13 09:15:15;;;;;;;1.30;1.20;;;28.20;74.00;;;;;;5043651;28;88007;-50
2022/09/13 09:17:47;;;;;;;3.60;1.40;;;28.20;75.10;;;;;;5044442;28;87067;-49
2022/09/13 09:20:33;;;;;;;1.90;1.20;;;28.20;77.30;;;;;;5044401;28;89060;-51
2022/09/13 09:23:03;;;;;;;3.87;1.57;;;28.20;76.10;;;;;;5044192;27;89461;-51
2022/09/13 09:25:33;;;;;;;1.80;1.07;;;28.20;76.70;;;;;;5044781;27;87040;-51
2022/09/13 09:28:01;;;;;;;1.60;1.30;;;28.20;86.10;;;;;;5039818;27;87034;-51
2022/09/13 09:30:36;;;;;;;1.13;0.90;;;28.20;73.60;;;;;;5034083;28;88082;-50
2022/09/13 09:33:11;;;;;;;1.73;0.93;;;28.20;73.20;;;;;;5024473;28;89130;-50
2022/09/13 09:35:46;;;;;;;1.50;1.40;;;28.30;73.30;;;;;;5024039;28;87122;-50
2022/09/13 09:38:23;;;;;;;1.10;1.00;;;28.20;73.20;;;;;;5023822;28;86915;-50
2022/09/13 09:40:52;;;;;;;0.90;0.83;;;28.20;73.30;;;;;;5023791;28;89689;-50
2022/09/13 09:43:25;;;;;;;1.10;0.63;;;28.20;73.40;;;;;;5023525;28;89352;-50
2022/09/13 09:45:53;;;;;;;0.80;0.70;;;28.30;73.90;;;;;;5023269;28;87056;-51
2022/09/13 09:48:24;;;;;;;0.93;0.90;;;28.30;74.20;;;;;;5023912;28;87018;-50
2022/09/13 09:50:53;;;;;;;0.70;0.60;;;28.30;74.40;;;;;;5023023;28;87883;-50
2022/09/13 09:53:25;;;;;;;1.13;0.90;;;28.30;75.20;;;;;;5025318;28;88842;-50
2022/09/13 09:55:59;;;;;;;0.87;0.80;;;28.30;76.50;;;;;;5044145;27;86823;-50
2022/09/13 09:58:40;;;;;;;0.70;0.47;;;28.30;77.30;;;;;;5043960;27;86143;-51
2022/09/13 10:01:16;;;;;;;0.53;0.53;;;28.30;79.40;;;;;;5043814;28;88956;-51
2022/09/13 10:03:50;;;;;;;0.60;0.60;;;28.30;80.30;;;;;;5043956;27;89074;-49
2022/09/13 10:06:19;;;;;;;0.90;0.87;;;28.30;76.30;;;;;;5043782;27;87995;-52
2022/09/13 10:08:49;;;;;;;1.40;0.80;;;28.30;74.80;;;;;;5043756;27;87012;-51
2022/09/13 10:11:21;;;;;;;0.70;0.70;;;28.30;73.60;;;;;;5036656;28;88908;-51
2022/09/13 10:13:58;;;;;;;0.70;0.50;;;28.30;74.30;;;;;;5023081;28;88603;-51
2022/09/13 10:16:27;;;;;;;0.93;0.87;;;28.30;73.00;;;;;;5023686;28;87011;-51
2022/09/13 10:19:05;;;;;;;1.57;1.17;;;28.30;73.40;;;;;;5022265;28;86916;-50
2022/09/13 10:21:38;;;;;;;2.60;1.20;;;28.30;73.10;;;;;;5022913;28;89224;-51
2022/09/13 10:24:16;;;;;;;1.27;1.07;;;28.40;73.50;;;;;;5030693;28;88823;-51
2022/09/13 10:26:45;;;;;;;0.97;0.80;;;28.30;73.70;;;;;;5023433;28;87000;-51
2022/09/13 10:29:15;;;;;;;1.23;0.77;;;28.30;74.30;;;;;;5024208;28;87089;-51
2022/09/13 10:31:44;;;;;;;0.80;0.80;;;28.30;75.00;;;;;;5023340;28;88669;-52
2022/09/13 10:34:13;;;;;;;0.97;0.67;;;28.40;75.00;;;;;;5023003;28;88287;-52
2022/09/13 10:36:47;;;;;;;1.00;0.80;;;28.40;75.40;;;;;;5022984;28;87045;-50
2022/09/13 10:39:21;;;;;;;1.13;0.77;;;28.40;75.10;;;;;;5023010;28;87036;-50
2022/09/13 10:41:52;;;;;;;0.70;0.70;;;28.40;77.30;;;;;;5022151;28;87016;-51
2022/09/13 10:44:27;;;;;;;0.83;0.80;;;28.40;72.70;;;;;;5021823;28;88935;-50
2022/09/13 10:46:56;;;;;;;1.10;0.80;;;28.40;73.90;;;;;;5023657;28;86765;-50
2022/09/13 10:49:37;;;;;;;1.90;0.80;;;28.40;73.90;;;;;;5029675;28;88275;-50
2022/09/13 10:52:29;;;;;;;0.97;0.87;;;28.40;73.60;;;;;;5042943;28;89135;-51
2022/09/13 10:55:17;;;;;;;2.13;1.10;;;28.40;72.90;;;;;;5040326;28;87676;-51
2022/09/13 10:57:47;;;;;;;1.00;0.90;;;28.40;74.30;;;;;;5042002;27;87848;-51
2022/09/13 11:00:17;;;;;;;0.90;0.80;;;28.40;73.60;;;;;;5042750;27;86803;-51
2022/09/13 11:03:13;;;;;;;1.77;0.73;;;28.50;73.60;;;;;;5042626;28;89341;-51
2022/09/13 11:05:42;;;;;;;0.93;0.90;;;28.40;73.10;;;;;;5042776;27;88660;-51
2022/09/13 11:08:20;;;;;;;2.93;1.40;;;28.50;72.80;;;;;;5043281;27;86971;-51
2022/09/13 11:11:04;;;;;;;1.67;1.20;;;28.40;71.50;;;;;;5041075;27;87058;-51
2022/09/13 11:13:38;;;;;;;2.90;1.00;;;28.40;72.10;;;;;;5024521;28;88944;-51
2022/09/13 11:16:20;;;;;;;2.80;0.93;;;28.50;71.10;;;;;;5042586;28;88621;-51
2022/09/13 11:19:21;;;;;;;0.80;0.80;;;28.50;71.70;;;;;;5043008;27;87041;-51
2022/09/13 11:21:57;;;;;;;0.80;0.80;;;28.50;72.90;;;;;;5037961;27;87054;-51
2022/09/13 11:24:51;;;;;;;1.87;0.90;;;28.50;73.90;;;;;;5041572;28;90137;-51
2022/09/13 11:27:22;;;;;;;1.60;0.90;;;28.50;73.40;;;;;;5042613;28;88592;-51
2022/09/13 11:30:10;;;;;;;0.50;0.50;;;28.40;71.00;;;;;;5042254;28;87019;-51
2022/09/13 11:32:49;;;;;;;1.23;1.07;;;28.40;71.00;;;;;;5041534;28;86999;-51
2022/09/13 11:35:42;;;;;;;1.00;0.80;;;28.40;71.10;;;;;;5042139;28;89027;-51
2022/09/13 11:38:34;;;;;;;0.87;0.77;;;28.40;71.00;;;;;;5042103;27;87510;-51
2022/09/13 11:41:08;;;;;;;1.17;0.90;;;28.50;71.30;;;;;;5041636;28;87064;-51
2022/09/13 11:43:47;;;;;;;1.57;0.70;;;28.50;71.00;;;;;;5042307;28;86278;-51
2022/09/13 11:46:20;;;;;;;0.93;0.80;;;28.50;71.20;;;;;;5041896;28;89140;-51
2022/09/13 11:49:12;;;;;;;1.67;1.00;;;28.50;70.60;;;;;;5021544;28;88940;-51
2022/09/13 11:51:47;;;;;;;1.53;1.43;;;28.50;70.50;;;;;;5017560;28;87915;-51
2022/09/13 11:54:22;;;;;;;3.23;1.00;;;28.50;71.50;;;;;;5025198;28;86933;-51
2022/09/13 11:56:52;;;;;;;2.37;0.80;;;28.40;71.60;;;;;;5039981;27;88840;-51
2022/09/13 11:59:24;;;;;;;1.40;0.60;;;28.50;71.00;;;;;;5041567;27;88826;-51
2022/09/13 12:01:56;;;;;;;0.90;0.70;;;28.50;71.30;;;;;;5062239;27;87016;-51
2022/09/13 12:04:26;;;;;;;0.77;0.77;;;28.50;71.50;;;;;;5059157;27;87008;-51
2022/09/13 12:07:01;;;;;;;0.70;0.60;;;28.60;72.80;;;;;;5037467;28;88041;-51
2022/09/13 12:09:32;;;;;;;1.23;0.70;;;28.60;71.40;;;;;;5034439;28;88954;-51
2022/09/13 12:12:03;;;;;;;0.90;0.90;;;28.60;71.90;;;;;;5042027;27;87051;-51
2022/09/13 12:14:36;;;;;;;1.53;0.80;;;28.60;72.00;;;;;;5021600;28;87001;-51
2022/09/13 12:17:09;;;;;;;1.30;0.67;;;28.60;73.60;;;;;;5034615;27;90075;-51
2022/09/13 12:19:42;;;;;;;0.70;0.70;;;28.70;71.70;;;;;;5041537;28;89942;-50
2022/09/13 12:22:11;;;;;;;1.83;0.60;;;28.60;70.30;;;;;;5043961;27;87242;-51
2022/09/13 12:24:42;;;;;;;0.50;0.50;;;28.70;70.20;;;;;;5052474;27;86899;-54
2022/09/13 12:27:12;;;;;;;0.60;0.60;;;28.60;69.70;;;;;;5040356;28;87112;-52
2022/09/13 12:29:43;;;;;;;1.10;0.90;;;28.60;71.40;;;;;;5051758;27;88678;-51
2022/09/13 12:32:13;;;;;;;1.40;0.70;;;28.60;70.10;;;;;;5055271;27;86962;-51
2022/09/13 12:34:42;;;;;;;1.47;1.20;;;28.70;69.80;;;;;;5041730;27;86010;-51
2022/09/13 12:37:50;;;;;;;0.93;0.83;;;28.70;70.90;;;;;;5039261;27;88992;-51
2022/09/13 12:40:38;;;;;;;0.70;0.60;;;28.70;68.90;;;;;;5016801;27;88847;-51
2022/09/13 12:43:24;;;;;;;0.90;0.90;;;28.70;68.80;;;;;;5043683;28;87690;-51
2022/09/13 12:46:15;;;;;;;0.97;0.80;;;28.70;71.10;;;;;;5036346;28;87077;-51
2022/09/13 12:49:12;;;;;;;0.97;0.70;;;28.70;70.90;;;;;;5036176;28;89070;-50
2022/09/13 12:51:56;;;;;;;1.07;0.73;;;28.70;69.80;;;;;;5041253;28;87062;-50
2022/09/13 12:54:41;;;;;;;1.00;0.70;;;28.70;69.40;;;;;;5046417;27;86830;-51
2022/09/13 12:57:20;;;;;;;0.83;0.70;;;28.70;68.10;;;;;;5050958;27;86932;-51
2022/09/13 13:00:02;;;;;;;0.73;0.67;;;28.70;68.20;;;;;;5044467;27;88804;-50
2022/09/13 13:02:33;;;;;;;1.20;0.80;;;28.70;68.50;;;;;;5044468;27;88979;-51
2022/09/13 13:05:04;;;;;;;1.00;0.90;;;28.80;69.80;;;;;;5043102;27;87338;-51
2022/09/13 13:07:33;;;;;;;2.13;1.10;;;28.80;71.40;;;;;;5045006;27;86992;-51
2022/09/13 13:10:01;;;;;;;1.67;1.17;;;28.80;67.70;;;;;;5032918;27;89036;-51
2022/09/13 13:12:32;;;;;;;0.80;0.80;;;28.80;67.00;;;;;;5023809;28;89794;-51